Aviation Digital Data Service (ADDS)

Output produced by METARs form (0202 UTC 22 April 2019)
found at http://www.aviationweather.gov/metar/data/
 
METAR text: RPMD 220100Z 04002KT 9999 FEW016 30/23 Q1011 RMK A2985
Conditions at: RPMD (DAVAO/FRANCISCO , PH) observed 0100 UTC 22 April 2019
Temperature: 30.0°C (86°F)
Dewpoint: 23.0°C (73°F) [RH = 66%]
Pressure (altimeter): 29.85 inches Hg (1011.0 mb)
Winds: from the NE (40 degrees) at 2 MPH (2 knots; 1.0 m/s)
Visibility: 6 or more miles (10+ km)
Ceiling: at least 12,000 feet AGL
Clouds: few clouds at 1600 feet AGL
Weather: no significant weather observed at this time

METAR text: RPMD 220000Z 04002KT 9999 FEW016 SCT090 29/23 Q1011 RMK A2985
Conditions at: RPMD (DAVAO/FRANCISCO , PH) observed 0000 UTC 22 April 2019
Temperature: 29.0°C (84°F)
Dewpoint: 23.0°C (73°F) [RH = 70%]
Pressure (altimeter): 29.85 inches Hg (1011.0 mb)
Winds: from the NE (40 degrees) at 2 MPH (2 knots; 1.0 m/s)
Visibility: 6 or more miles (10+ km)
Ceiling: at least 12,000 feet AGL
Clouds: few clouds at 1600 feet AGL
scattered clouds at 9000 feet AGL
Weather: no significant weather observed at this time

METAR text: RPMD 212300Z 36003KT 9999 FEW016 SCT090 28/23 Q1010 RMK A2983
Conditions at: RPMD (DAVAO/FRANCISCO , PH) observed 2300 UTC 21 April 2019
Temperature: 28.0°C (82°F)
Dewpoint: 23.0°C (73°F) [RH = 74%]
Pressure (altimeter): 29.82 inches Hg (1010.0 mb)
Winds: from the N (360 degrees) at 3 MPH (3 knots; 1.5 m/s)
Visibility: 6 or more miles (10+ km)
Ceiling: at least 12,000 feet AGL
Clouds: few clouds at 1600 feet AGL
scattered clouds at 9000 feet AGL
Weather: no significant weather observed at this time

METAR text: RPMD 212200Z 36004KT 9999 FEW016 BKN090 BKN290 27/23 Q1009 RMK A2980
Conditions at: RPMD (DAVAO/FRANCISCO , PH) observed 2200 UTC 21 April 2019
Temperature: 27.0°C (81°F)
Dewpoint: 23.0°C (73°F) [RH = 79%]
Pressure (altimeter): 29.79 inches Hg (1009.0 mb)
Winds: from the N (360 degrees) at 5 MPH (4 knots; 2.1 m/s)
Visibility: 6 or more miles (10+ km)
Ceiling: 9000 feet AGL
Clouds: few clouds at 1600 feet AGL
broken clouds at 9000 feet AGL
broken clouds at 29000 feet AGL
Weather: no significant weather observed at this time

METAR text: RPMD 212100Z 02002KT 9999 FEW016 SCT090 BKN290 27/24 Q1009 RMK A2980
Conditions at: RPMD (DAVAO/FRANCISCO , PH) observed 2100 UTC 21 April 2019
Temperature: 27.0°C (81°F)
Dewpoint: 24.0°C (75°F) [RH = 84%]
Pressure (altimeter): 29.79 inches Hg (1009.0 mb)
Winds: from the NNE (20 degrees) at 2 MPH (2 knots; 1.0 m/s)
Visibility: 6 or more miles (10+ km)
Ceiling: 29000 feet AGL
Clouds: few clouds at 1600 feet AGL
scattered clouds at 9000 feet AGL
broken clouds at 29000 feet AGL
Weather: no significant weather observed at this time

METAR text: RPMD 212000Z 02006KT 9999 FEW016 BKN090 OVC290 27/24 Q1009 RMK A2980
Conditions at: RPMD (DAVAO/FRANCISCO , PH) observed 2000 UTC 21 April 2019
Temperature: 27.0°C (81°F)
Dewpoint: 24.0°C (75°F) [RH = 84%]
Pressure (altimeter): 29.79 inches Hg (1009.0 mb)
Winds: from the NNE (20 degrees) at 7 MPH (6 knots; 3.1 m/s)
Visibility: 6 or more miles (10+ km)
Ceiling: 9000 feet AGL
Clouds: few clouds at 1600 feet AGL
broken clouds at 9000 feet AGL
overcast cloud deck at 29000 feet AGL
Weather: no significant weather observed at this time

METAR text: RPMD 211900Z 04002KT 9999 FEW015CB BKN090 OVC290 27/24 Q1009 RMK A2980 OCNL LTG S
Conditions at: RPMD (DAVAO/FRANCISCO , PH) observed 1900 UTC 21 April 2019
Temperature: 27.0°C (81°F)
Dewpoint: 24.0°C (75°F) [RH = 84%]
Pressure (altimeter): 29.79 inches Hg (1009.0 mb)
Winds: from the NE (40 degrees) at 2 MPH (2 knots; 1.0 m/s)
Visibility: 6 or more miles (10+ km)
Ceiling: 9000 feet AGL
Clouds: few clouds at 1500 feet AGL
broken clouds at 9000 feet AGL
overcast cloud deck at 29000 feet AGL
Weather: no significant weather observed at this time

METAR text: RPMD 211800Z 36004KT 9999 FEW016 BKN090 BKN290 27/24 Q1009 RMK A2980
Conditions at: RPMD (DAVAO/FRANCISCO , PH) observed 1800 UTC 21 April 2019
Temperature: 27.0°C (81°F)
Dewpoint: 24.0°C (75°F) [RH = 84%]
Pressure (altimeter): 29.79 inches Hg (1009.0 mb)
Winds: from the N (360 degrees) at 5 MPH (4 knots; 2.1 m/s)
Visibility: 6 or more miles (10+ km)
Ceiling: 9000 feet AGL
Clouds: few clouds at 1600 feet AGL
broken clouds at 9000 feet AGL
broken clouds at 29000 feet AGL
Weather: no significant weather observed at this time

METAR text: RPMD 211700Z 04002KT 9999 FEW016 SCT090 OVC290 27/25 Q1012 RMK A2988
Conditions at: RPMD (DAVAO/FRANCISCO , PH) observed 1700 UTC 21 April 2019
Temperature: 27.0°C (81°F)
Dewpoint: 25.0°C (77°F) [RH = 89%]
Pressure (altimeter): 29.88 inches Hg (1012.0 mb)
Winds: from the NE (40 degrees) at 2 MPH (2 knots; 1.0 m/s)
Visibility: 6 or more miles (10+ km)
Ceiling: 29000 feet AGL
Clouds: few clouds at 1600 feet AGL
scattered clouds at 9000 feet AGL
overcast cloud deck at 29000 feet AGL
Weather: no significant weather observed at this time

METAR text: RPMD 211600Z 04002KT 9999 FEW016 BKN090 OVC290 27/24 Q1012 RMK A2988
Conditions at: RPMD (DAVAO/FRANCISCO , PH) observed 1600 UTC 21 April 2019
Temperature: 27.0°C (81°F)
Dewpoint: 24.0°C (75°F) [RH = 84%]
Pressure (altimeter): 29.88 inches Hg (1012.0 mb)
Winds: from the NE (40 degrees) at 2 MPH (2 knots; 1.0 m/s)
Visibility: 6 or more miles (10+ km)
Ceiling: 9000 feet AGL
Clouds: few clouds at 1600 feet AGL
broken clouds at 9000 feet AGL
overcast cloud deck at 29000 feet AGL
Weather: no significant weather observed at this time

METAR text: RPMD 211500Z 04002KT 9999 FEW016 BKN090 OVC290 27/24 Q1012 RMK A2988
Conditions at: RPMD (DAVAO/FRANCISCO , PH) observed 1500 UTC 21 April 2019
Temperature: 27.0°C (81°F)
Dewpoint: 24.0°C (75°F) [RH = 84%]
Pressure (altimeter): 29.88 inches Hg (1012.0 mb)
Winds: from the NE (40 degrees) at 2 MPH (2 knots; 1.0 m/s)
Visibility: 6 or more miles (10+ km)
Ceiling: 9000 feet AGL
Clouds: few clouds at 1600 feet AGL
broken clouds at 9000 feet AGL
overcast cloud deck at 29000 feet AGL
Weather: no significant weather observed at this time

METAR text: RPMD 211400Z 04002KT 9999 FEW016 BKN090 BKN290 28/24 Q1012 RMK A2988
Conditions at: RPMD (DAVAO/FRANCISCO , PH) observed 1400 UTC 21 April 2019
Temperature: 28.0°C (82°F)
Dewpoint: 24.0°C (75°F) [RH = 79%]
Pressure (altimeter): 29.88 inches Hg (1012.0 mb)
Winds: from the NE (40 degrees) at 2 MPH (2 knots; 1.0 m/s)
Visibility: 6 or more miles (10+ km)
Ceiling: 9000 feet AGL
Clouds: few clouds at 1600 feet AGL
broken clouds at 9000 feet AGL
broken clouds at 29000 feet AGL
Weather: no significant weather observed at this time

METAR text: RPMD 211300Z 09002KT 9999 SCT016 BKN090 BKN290 28/25 Q1011 RMK A2985
Conditions at: RPMD (DAVAO/FRANCISCO , PH) observed 1300 UTC 21 April 2019
Temperature: 28.0°C (82°F)
Dewpoint: 25.0°C (77°F) [RH = 84%]
Pressure (altimeter): 29.85 inches Hg (1011.0 mb)
Winds: from the E (90 degrees) at 2 MPH (2 knots; 1.0 m/s)
Visibility: 6 or more miles (10+ km)
Ceiling: 9000 feet AGL
Clouds: scattered clouds at 1600 feet AGL
broken clouds at 9000 feet AGL
broken clouds at 29000 feet AGL
Weather: no significant weather observed at this time

METAR text: RPMD 211200Z 04002KT 9999 FEW016 SCT090 28/25 Q1010 RMK A2983
Conditions at: RPMD (DAVAO/FRANCISCO , PH) observed 1200 UTC 21 April 2019
Temperature: 28.0°C (82°F)
Dewpoint: 25.0°C (77°F) [RH = 84%]
Pressure (altimeter): 29.82 inches Hg (1010.0 mb)
Winds: from the NE (40 degrees) at 2 MPH (2 knots; 1.0 m/s)
Visibility: 6 or more miles (10+ km)
Ceiling: at least 12,000 feet AGL
Clouds: few clouds at 1600 feet AGL
scattered clouds at 9000 feet AGL
Weather: no significant weather observed at this time

METAR text: RPMD 211100Z 18002KT 9999 FEW015CB BKN090 BKN290 29/26 Q1009 RMK A2980 OCNL LTG WNW
Conditions at: RPMD (DAVAO/FRANCISCO , PH) observed 1100 UTC 21 April 2019
Temperature: 29.0°C (84°F)
Dewpoint: 26.0°C (79°F) [RH = 84%]
Pressure (altimeter): 29.79 inches Hg (1009.0 mb)
Winds: from the S (180 degrees) at 2 MPH (2 knots; 1.0 m/s)
Visibility: 6 or more miles (10+ km)
Ceiling: 9000 feet AGL
Clouds: few clouds at 1500 feet AGL
broken clouds at 9000 feet AGL
broken clouds at 29000 feet AGL
Weather: no significant weather observed at this time

METAR text: RPMD 211000Z 04002KT 9000 -SHRA FEW015CB BKN090 29/25 Q1009 RMK A2980 CB ENE-SE WSW-WNW
Conditions at: RPMD (DAVAO/FRANCISCO , PH) observed 1000 UTC 21 April 2019
Temperature: 29.0°C (84°F)
Dewpoint: 25.0°C (77°F) [RH = 79%]
Pressure (altimeter): 29.79 inches Hg (1009.0 mb)
Winds: from the NE (40 degrees) at 2 MPH (2 knots; 1.0 m/s)
Visibility: 6 miles ( 9 km)
Ceiling: 9000 feet AGL
Clouds: few clouds at 1500 feet AGL
broken clouds at 9000 feet AGL
Weather: -SHRA  (light rain showers)

METAR text: RPMD 210900Z 14004KT 8000 -SHRA SCT015CB BKN090 BKN290 31/25 Q1008 RMK A2977 RETS CB NW, NNW N-E, S-WNW
Conditions at: RPMD (DAVAO/FRANCISCO , PH) observed 0900 UTC 21 April 2019
Temperature: 31.0°C (88°F)
Dewpoint: 25.0°C (77°F) [RH = 71%]
Pressure (altimeter): 29.76 inches Hg (1008.0 mb)
Winds: from the SE (140 degrees) at 5 MPH (4 knots; 2.1 m/s)
Visibility: 5 miles ( 8 km)
Ceiling: 9000 feet AGL
Clouds: scattered clouds at 1500 feet AGL
broken clouds at 9000 feet AGL
broken clouds at 29000 feet AGL
Weather: -SHRA  (light rain showers)

METAR text: RPMD 210800Z 07006KT 9999 TS VCSH SCT015CB SCT090 BKN290 32/24 Q1008 RMK A2977 TS/VCSH SE,CB NE- SSE,SW
Conditions at: RPMD (DAVAO/FRANCISCO , PH) observed 0800 UTC 21 April 2019
Temperature: 32.0°C (90°F)
Dewpoint: 24.0°C (75°F) [RH = 63%]
Pressure (altimeter): 29.76 inches Hg (1008.0 mb)
Winds: from the ENE (70 degrees) at 7 MPH (6 knots; 3.1 m/s)
Visibility: 6 or more miles (10+ km)
Ceiling: 29000 feet AGL
Clouds: scattered clouds at 1500 feet AGL
scattered clouds at 9000 feet AGL
broken clouds at 29000 feet AGL
Weather: TS VCSH  (thunderstorm, showers in vicinity)

METAR text: RPMD 210700Z 04008KT 9999 VCSH SCT016 BKN090 32/23 Q1008 RMK A2977 DSTNT PCPN NNW, SSW
Conditions at: RPMD (DAVAO/FRANCISCO , PH) observed 0700 UTC 21 April 2019
Temperature: 32.0°C (90°F)
Dewpoint: 23.0°C (73°F) [RH = 59%]
Pressure (altimeter): 29.76 inches Hg (1008.0 mb)
Winds: from the NE (40 degrees) at 9 MPH (8 knots; 4.1 m/s)
Visibility: 6 or more miles (10+ km)
Ceiling: 9000 feet AGL
Clouds: scattered clouds at 1600 feet AGL
broken clouds at 9000 feet AGL
Weather: VCSH  (showers in vicinity)

METAR text: RPMD 210600Z 04010KT 9999 FEW016 SCT090 BKN190 32/24 Q1009 RMK A2980
Conditions at: RPMD (DAVAO/FRANCISCO , PH) observed 0600 UTC 21 April 2019
Temperature: 32.0°C (90°F)
Dewpoint: 24.0°C (75°F) [RH = 63%]
Pressure (altimeter): 29.79 inches Hg (1009.0 mb)
Winds: from the NE (40 degrees) at 12 MPH (10 knots; 5.1 m/s)
Visibility: 6 or more miles (10+ km)
Ceiling: 19000 feet AGL
Clouds: few clouds at 1600 feet AGL
scattered clouds at 9000 feet AGL
broken clouds at 19000 feet AGL
Weather: no significant weather observed at this time

METAR text: RPMD 210500Z 07006KT 9999 SCT016 SCT290 33/24 Q1010 RMK A2983
Conditions at: RPMD (DAVAO/FRANCISCO , PH) observed 0500 UTC 21 April 2019
Temperature: 33.0°C (91°F)
Dewpoint: 24.0°C (75°F) [RH = 59%]
Pressure (altimeter): 29.82 inches Hg (1010.0 mb)
Winds: from the ENE (70 degrees) at 7 MPH (6 knots; 3.1 m/s)
Visibility: 6 or more miles (10+ km)
Ceiling: at least 12,000 feet AGL
Clouds: scattered clouds at 1600 feet AGL
scattered clouds at 29000 feet AGL
Weather: no significant weather observed at this time

METAR text: RPMD 210400Z 04008KT 9999 FEW016 SCT290 32/24 Q1011 RMK A2985
Conditions at: RPMD (DAVAO/FRANCISCO , PH) observed 0400 UTC 21 April 2019
Temperature: 32.0°C (90°F)
Dewpoint: 24.0°C (75°F) [RH = 63%]
Pressure (altimeter): 29.85 inches Hg (1011.0 mb)
Winds: from the NE (40 degrees) at 9 MPH (8 knots; 4.1 m/s)
Visibility: 6 or more miles (10+ km)
Ceiling: at least 12,000 feet AGL
Clouds: few clouds at 1600 feet AGL
scattered clouds at 29000 feet AGL
Weather: no significant weather observed at this time

METAR text: RPMD 210300Z 07010KT 9999 FEW016 SCT290 33/23 Q1011 RMK A2985
Conditions at: RPMD (DAVAO/FRANCISCO , PH) observed 0300 UTC 21 April 2019
Temperature: 33.0°C (91°F)
Dewpoint: 23.0°C (73°F) [RH = 56%]
Pressure (altimeter): 29.85 inches Hg (1011.0 mb)
Winds: from the ENE (70 degrees) at 12 MPH (10 knots; 5.1 m/s)
Visibility: 6 or more miles (10+ km)
Ceiling: at least 12,000 feet AGL
Clouds: few clouds at 1600 feet AGL
scattered clouds at 29000 feet AGL
Weather: no significant weather observed at this time

METAR text: RPMD 210200Z 07004KT 9999 FEW016 BKN290 31/23 Q1011 RMK A2985
Conditions at: RPMD (DAVAO/FRANCISCO , PH) observed 0200 UTC 21 April 2019
Temperature: 31.0°C (88°F)
Dewpoint: 23.0°C (73°F) [RH = 63%]
Pressure (altimeter): 29.85 inches Hg (1011.0 mb)
Winds: from the ENE (70 degrees) at 5 MPH (4 knots; 2.1 m/s)
Visibility: 6 or more miles (10+ km)
Ceiling: 29000 feet AGL
Clouds: few clouds at 1600 feet AGL
broken clouds at 29000 feet AGL
Weather: no significant weather observed at this time

METAR text: RPMD 210100Z 07004KT 9999 FEW016 SCT090 31/23 Q1012 RMK A2988
Conditions at: RPMD (DAVAO/FRANCISCO , PH) observed 0100 UTC 21 April 2019
Temperature: 31.0°C (88°F)
Dewpoint: 23.0°C (73°F) [RH = 63%]
Pressure (altimeter): 29.88 inches Hg (1012.0 mb)
Winds: from the ENE (70 degrees) at 5 MPH (4 knots; 2.1 m/s)
Visibility: 6 or more miles (10+ km)
Ceiling: at least 12,000 feet AGL
Clouds: few clouds at 1600 feet AGL
scattered clouds at 9000 feet AGL
Weather: no significant weather observed at this time

METAR text: RPMD 210000Z 36010KT 9999 FEW016 29/23 Q1011 RMK A2985
Conditions at: RPMD (DAVAO/FRANCISCO , PH) observed 0000 UTC 21 April 2019
Temperature: 29.0°C (84°F)
Dewpoint: 23.0°C (73°F) [RH = 70%]
Pressure (altimeter): 29.85 inches Hg (1011.0 mb)
Winds: from the N (360 degrees) at 12 MPH (10 knots; 5.1 m/s)
Visibility: 6 or more miles (10+ km)
Ceiling: at least 12,000 feet AGL
Clouds: few clouds at 1600 feet AGL
Weather: no significant weather observed at this time

METAR text: RPMD 202300Z 02005KT 9999 FEW016 27/23 Q1010 RMK A2983
Conditions at: RPMD (DAVAO/FRANCISCO , PH) observed 2300 UTC 20 April 2019
Temperature: 27.0°C (81°F)
Dewpoint: 23.0°C (73°F) [RH = 79%]
Pressure (altimeter): 29.82 inches Hg (1010.0 mb)
Winds: from the NNE (20 degrees) at 6 MPH (5 knots; 2.6 m/s)
Visibility: 6 or more miles (10+ km)
Ceiling: at least 12,000 feet AGL
Clouds: few clouds at 1600 feet AGL
Weather: no significant weather observed at this time

METAR text: RPMD 202200Z 02002KT 9999 FEW016 BKN290 26/24 Q1010 RMK A2983
Conditions at: RPMD (DAVAO/FRANCISCO , PH) observed 2200 UTC 20 April 2019
Temperature: 26.0°C (79°F)
Dewpoint: 24.0°C (75°F) [RH = 89%]
Pressure (altimeter): 29.82 inches Hg (1010.0 mb)
Winds: from the NNE (20 degrees) at 2 MPH (2 knots; 1.0 m/s)
Visibility: 6 or more miles (10+ km)
Ceiling: 29000 feet AGL
Clouds: few clouds at 1600 feet AGL
broken clouds at 29000 feet AGL
Weather: no significant weather observed at this time

METAR text: RPMD 202100Z 36002KT 9999 FEW016 BKN090 OVC290 26/23 Q1009 RMK A2980
Conditions at: RPMD (DAVAO/FRANCISCO , PH) observed 2100 UTC 20 April 2019
Temperature: 26.0°C (79°F)
Dewpoint: 23.0°C (73°F) [RH = 84%]
Pressure (altimeter): 29.79 inches Hg (1009.0 mb)
Winds: from the N (360 degrees) at 2 MPH (2 knots; 1.0 m/s)
Visibility: 6 or more miles (10+ km)
Ceiling: 9000 feet AGL
Clouds: few clouds at 1600 feet AGL
broken clouds at 9000 feet AGL
overcast cloud deck at 29000 feet AGL
Weather: no significant weather observed at this time

METAR text: RPMD 202000Z 36002KT 9999 FEW016 SCT090 26/23 Q1009 RMK A2980
Conditions at: RPMD (DAVAO/FRANCISCO , PH) observed 2000 UTC 20 April 2019
Temperature: 26.0°C (79°F)
Dewpoint: 23.0°C (73°F) [RH = 84%]
Pressure (altimeter): 29.79 inches Hg (1009.0 mb)
Winds: from the N (360 degrees) at 2 MPH (2 knots; 1.0 m/s)
Visibility: 6 or more miles (10+ km)
Ceiling: at least 12,000 feet AGL
Clouds: few clouds at 1600 feet AGL
scattered clouds at 9000 feet AGL
Weather: no significant weather observed at this time

METAR text: RPMD 201900Z 02004KT 9999 FEW016 26/23 Q1009 RMK A2980
Conditions at: RPMD (DAVAO/FRANCISCO , PH) observed 1900 UTC 20 April 2019
Temperature: 26.0°C (79°F)
Dewpoint: 23.0°C (73°F) [RH = 84%]
Pressure (altimeter): 29.79 inches Hg (1009.0 mb)
Winds: from the NNE (20 degrees) at 5 MPH (4 knots; 2.1 m/s)
Visibility: 6 or more miles (10+ km)
Ceiling: at least 12,000 feet AGL
Clouds: few clouds at 1600 feet AGL
Weather: no significant weather observed at this time

METAR text: RPMD 201800Z 36004KT 9999 FEW016 27/23 Q1009 RMK A2980
Conditions at: RPMD (DAVAO/FRANCISCO , PH) observed 1800 UTC 20 April 2019
Temperature: 27.0°C (81°F)
Dewpoint: 23.0°C (73°F) [RH = 79%]
Pressure (altimeter): 29.79 inches Hg (1009.0 mb)
Winds: from the N (360 degrees) at 5 MPH (4 knots; 2.1 m/s)
Visibility: 6 or more miles (10+ km)
Ceiling: at least 12,000 feet AGL
Clouds: few clouds at 1600 feet AGL
Weather: no significant weather observed at this time

METAR text: RPMD 201700Z 36002KT 9999 FEW016 27/23 Q1009 RMK A2980
Conditions at: RPMD (DAVAO/FRANCISCO , PH) observed 1700 UTC 20 April 2019
Temperature: 27.0°C (81°F)
Dewpoint: 23.0°C (73°F) [RH = 79%]
Pressure (altimeter): 29.79 inches Hg (1009.0 mb)
Winds: from the N (360 degrees) at 2 MPH (2 knots; 1.0 m/s)
Visibility: 6 or more miles (10+ km)
Ceiling: at least 12,000 feet AGL
Clouds: few clouds at 1600 feet AGL
Weather: no significant weather observed at this time

METAR text: RPMD 201600Z 34002KT 9999 FEW016 27/23 Q1010 RMK A2983
Conditions at: RPMD (DAVAO/FRANCISCO , PH) observed 1600 UTC 20 April 2019
Temperature: 27.0°C (81°F)
Dewpoint: 23.0°C (73°F) [RH = 79%]
Pressure (altimeter): 29.82 inches Hg (1010.0 mb)
Winds: from the NNW (340 degrees) at 2 MPH (2 knots; 1.0 m/s)
Visibility: 6 or more miles (10+ km)
Ceiling: at least 12,000 feet AGL
Clouds: few clouds at 1600 feet AGL
Weather: no significant weather observed at this time

METAR text: RPMD 201500Z 36004KT 9999 FEW016 28/23 Q1010 RMK A2983
Conditions at: RPMD (DAVAO/FRANCISCO , PH) observed 1500 UTC 20 April 2019
Temperature: 28.0°C (82°F)
Dewpoint: 23.0°C (73°F) [RH = 74%]
Pressure (altimeter): 29.82 inches Hg (1010.0 mb)
Winds: from the N (360 degrees) at 5 MPH (4 knots; 2.1 m/s)
Visibility: 6 or more miles (10+ km)
Ceiling: at least 12,000 feet AGL
Clouds: few clouds at 1600 feet AGL
Weather: no significant weather observed at this time

Forecast for: RPMD (DAVAO/FRANCISCO , PH)
Text: TAF RPMD 212300Z 2200/2224 04006KT 9999 FEW016 SCT090 BKN290
Forecast period: 0000 UTC 22 April 2019 to 0000 UTC 23 April 2019
Forecast type: FROM: standard forecast or significant change
Winds: from the NE (40 degrees) at 7 MPH (6 knots; 3.1 m/s)
Visibility: 6 or more miles 10+ km)
Ceiling: 29000 feet AGL
Clouds: few clouds at 1600 feet AGL
scattered clouds at 9000 feet AGL
broken clouds at 29000 feet AGL
Weather: no significant weather forecast for this period
Text: TEMPO 2200/2206 07012KT FEW015CB BKN090 BKN290
Forecast period: 0000 to 0600 UTC 22 April 2019
Forecast type: TEMPORARY: The following changes expected for less than half the time period
Winds: from the ENE (70 degrees) at 14 MPH (12 knots; 6.2 m/s)
Visibility: missing
Ceiling: 9000 feet AGL
Clouds: few clouds at 1500 feet AGL
broken clouds at 9000 feet AGL
broken clouds at 29000 feet AGL
Weather: no significant weather forecast for this period